Time;durP1;ratioP1;P1;durP2;ratioP2;P2;SDS_P1;SDS_P2;PMS_P1;PMS_P2;Temp;Humidity;BMP_temperature;BMP_pressure;BME280_temperature;BME280_humidity;BME280_pressure;Samples;Min_cycle;Max_cycle;Signal;HPM_P1;HPM_P2
2022/11/14 00:00:22;;;;;;;12.75;8.50;;;;;;;4.43;nan;100595.81;5056000;28;20040;-83
2022/11/14 00:02:47;;;;;;;13.48;9.75;;;;;;;4.45;nan;100599.97;5074066;28;20028;-84
2022/11/14 00:05:13;;;;;;;14.32;9.57;;;;;;;4.48;nan;100593.69;5074948;28;20051;-83
2022/11/14 00:07:38;;;;;;;14.23;8.55;;;;;;;4.53;nan;100594.22;5074463;28;20067;-82
2022/11/14 00:10:04;;;;;;;11.88;7.72;;;;;;;4.59;nan;100595.53;5054884;28;20043;-83
2022/11/14 00:12:29;;;;;;;11.13;6.80;;;;;;;4.61;nan;100596.28;5071600;28;20036;-83
2022/11/14 00:14:55;;;;;;;11.68;7.78;;;;;;;4.62;nan;100593.56;5074031;28;20041;-83
2022/11/14 00:17:20;;;;;;;12.10;8.20;;;;;;;4.66;nan;100581.06;5052474;28;20080;-82
2022/11/14 00:19:45;;;;;;;18.33;11.93;;;;;;;4.68;nan;100584.41;5070782;28;20123;-83
2022/11/14 00:22:11;;;;;;;17.00;11.00;;;;;;;4.74;nan;100586.53;5049887;28;20503;-83
2022/11/14 00:24:36;;;;;;;27.40;11.85;;;;;;;4.74;nan;100597.03;5048600;28;20033;-82
2022/11/14 00:27:01;;;;;;;16.02;10.32;;;;;;;4.75;nan;100583.00;5049087;28;20237;-83
2022/11/14 00:29:27;;;;;;;17.17;10.65;;;;;;;4.79;nan;100584.44;5066988;28;20067;-83
2022/11/14 00:31:52;;;;;;;15.90;9.98;;;;;;;4.80;nan;100582.66;5050703;28;20045;-82
2022/11/14 00:34:17;;;;;;;14.23;9.80;;;;;;;4.83;nan;100572.78;5047483;28;20028;-83
2022/11/14 00:36:42;;;;;;;16.80;11.23;;;;;;;4.88;nan;100578.50;5070494;28;20040;-82
2022/11/14 00:39:12;;;;;;;20.38;12.50;;;;;;;4.90;nan;100581.84;5051190;28;20118;-83
2022/11/14 00:41:39;;;;;;;18.42;11.88;;;;;;;4.90;nan;100576.59;5053367;28;20759;-83
2022/11/14 00:44:04;;;;;;;18.25;10.95;;;;;;;4.93;nan;100572.94;5052985;28;20031;-83
2022/11/14 00:46:29;;;;;;;15.43;10.50;;;;;;;4.99;nan;100566.41;5049082;28;20048;-82
2022/11/14 00:48:55;;;;;;;22.60;13.48;;;;;;;4.99;nan;100561.16;5052765;28;20453;-83
2022/11/14 00:51:20;;;;;;;20.85;14.18;;;;;;;4.98;nan;100568.22;5069977;28;20074;-83
2022/11/14 00:53:45;;;;;;;21.52;14.23;;;;;;;4.96;nan;100558.75;5072432;28;20043;-83
2022/11/14 00:56:10;;;;;;;17.98;12.52;;;;;;;4.92;nan;100552.09;5052029;28;20520;-83
2022/11/14 00:58:36;;;;;;;21.83;14.65;;;;;;;4.92;nan;100552.94;5070728;28;20093;-83
2022/11/14 01:01:01;;;;;;;20.42;13.60;;;;;;;4.87;nan;100566.38;5055006;28;20107;-82
2022/11/14 01:03:26;;;;;;;18.25;12.63;;;;;;;4.85;nan;100554.34;5054765;28;20028;-83
2022/11/14 01:05:52;;;;;;;16.00;11.02;;;;;;;4.83;nan;100553.59;5067795;28;20090;-82
2022/11/14 01:08:18;;;;;;;16.85;10.88;;;;;;;4.82;nan;100547.53;5073755;28;20402;-84
2022/11/14 01:10:46;;;;;;;13.75;9.63;;;;;;;4.83;nan;100543.97;5051772;28;20111;-82
2022/11/14 01:13:12;;;;;;;14.70;10.48;;;;;;;4.83;nan;100541.34;5050364;28;20036;-83
2022/11/14 01:15:45;;;;;;;14.55;10.73;;;;;;;4.78;nan;100540.03;5053579;28;20045;-82
2022/11/14 01:18:13;;;;;;;13.05;9.85;;;;;;;4.76;nan;100547.97;5052168;28;20226;-84
2022/11/14 01:20:39;;;;;;;12.60;9.60;;;;;;;4.76;nan;100539.28;5048419;28;20044;-84
2022/11/14 01:23:06;;;;;;;12.98;8.93;;;;;;;4.75;nan;100541.09;5045847;28;20029;-84
2022/11/14 01:25:35;;;;;;;12.57;8.45;;;;;;;4.73;nan;100529.88;5045870;28;20033;-83
2022/11/14 01:28:01;;;;;;;12.60;8.75;;;;;;;4.70;nan;100521.44;5066067;28;20048;-83
2022/11/14 01:30:27;;;;;;;11.73;8.15;;;;;;;4.66;nan;100518.19;5044816;28;20047;-84
2022/11/14 01:32:52;;;;;;;9.27;6.90;;;;;;;4.65;nan;100516.53;5050845;28;20040;-85
2022/11/14 01:35:17;;;;;;;10.20;7.57;;;;;;;4.65;nan;100519.97;5054295;28;20557;-83
2022/11/14 01:37:42;;;;;;;10.65;8.00;;;;;;;4.65;nan;100511.28;5050521;28;20041;-83
2022/11/14 01:40:08;;;;;;;13.68;9.65;;;;;;;4.67;nan;100520.72;5039184;28;20033;-84
2022/11/14 01:42:34;;;;;;;11.02;7.97;;;;;;;4.73;nan;100514.16;5050847;28;20501;-85
2022/11/14 01:44:59;;;;;;;10.27;7.90;;;;;;;4.77;nan;100513.00;5049912;28;20037;-84
2022/11/14 01:47:29;;;;;;;10.35;7.53;;;;;;;4.83;nan;100506.44;5049794;28;20036;-83
2022/11/14 01:49:59;;;;;;;10.13;7.85;;;;;;;4.84;nan;100493.25;5051548;28;20033;-84
2022/11/14 01:52:29;;;;;;;11.88;8.35;;;;;;;4.87;nan;100489.56;5042146;28;20429;-82
2022/11/14 01:54:58;;;;;;;10.77;7.45;;;;;;;4.89;nan;100478.00;5048070;28;20033;-83
2022/11/14 01:57:28;;;;;;;11.23;7.80;;;;;;;4.90;nan;100465.72;5063733;28;20040;-81
2022/11/14 01:59:59;;;;;;;9.80;6.90;;;;;;;4.92;nan;100466.47;5044166;28;20037;-83
2022/11/14 02:02:25;;;;;;;8.52;6.20;;;;;;;4.93;nan;100462.88;5066876;28;20924;-86
2022/11/14 02:05:04;;;;;;;10.38;6.20;;;;;;;4.96;nan;100465.28;5052833;28;20029;-85
2022/11/14 02:07:33;;;;;;;9.90;7.03;;;;;;;4.95;nan;100462.78;5048055;28;20032;-83
2022/11/14 02:10:02;;;;;;;9.52;6.85;;;;;;;4.98;nan;100470.38;5052437;28;20359;-84
2022/11/14 02:12:28;;;;;;;11.45;7.95;;;;;;;4.98;nan;100463.38;5051430;28;20036;-83
2022/11/14 02:14:55;;;;;;;10.88;7.82;;;;;;;5.01;nan;100452.66;5049302;28;20674;-84
2022/11/14 02:17:21;;;;;;;9.63;7.35;;;;;;;5.06;nan;100447.06;5055204;28;20024;-84
2022/11/14 02:19:53;;;;;;;9.02;6.70;;;;;;;5.09;nan;100454.69;5053747;28;20036;-85
2022/11/14 02:22:18;;;;;;;8.85;6.25;;;;;;;5.14;nan;100451.72;5054934;28;20579;-82
2022/11/14 02:24:44;;;;;;;7.70;5.38;;;;;;;5.17;nan;100454.91;5060034;28;20033;-85
2022/11/14 02:27:11;;;;;;;9.43;7.00;;;;;;;5.21;nan;100452.91;5060450;28;20034;-84
2022/11/14 02:29:37;;;;;;;12.07;8.38;;;;;;;5.24;nan;100447.41;5059269;28;20029;-83
2022/11/14 02:32:03;;;;;;;11.32;7.78;;;;;;;5.29;nan;100453.13;5055632;28;20404;-84
2022/11/14 02:34:29;;;;;;;10.52;7.63;;;;;;;5.30;nan;100453.03;5052550;28;20037;-83
2022/11/14 02:36:55;;;;;;;10.50;7.93;;;;;;;5.33;nan;100446.69;5071748;28;20720;-83
2022/11/14 02:39:20;;;;;;;10.20;7.13;;;;;;;5.35;nan;100443.97;5052390;28;20025;-84
2022/11/14 02:41:45;;;;;;;10.70;7.70;;;;;;;5.34;nan;100437.91;5051785;28;20422;-81
2022/11/14 02:44:11;;;;;;;11.80;8.27;;;;;;;5.33;nan;100431.78;5054845;28;20111;-85
2022/11/14 02:46:36;;;;;;;14.02;9.30;;;;;;;5.33;nan;100437.03;5055861;28;20036;-84
2022/11/14 02:49:01;;;;;;;13.00;8.77;;;;;;;5.34;nan;100427.41;5071401;28;20247;-83
2022/11/14 02:51:27;;;;;;;14.05;10.25;;;;;;;5.33;nan;100426.56;5053862;28;20040;-82
2022/11/14 02:53:52;;;;;;;17.10;10.88;;;;;;;5.32;nan;100427.53;5072297;28;20040;-83
2022/11/14 02:56:17;;;;;;;15.82;10.32;;;;;;;5.31;nan;100432.88;5070421;28;20040;-82
2022/11/14 02:58:42;;;;;;;14.02;9.13;;;;;;;5.34;nan;100430.03;5053124;28;20056;-82
2022/11/14 03:01:08;;;;;;;14.50;9.77;;;;;;;5.34;nan;100424.78;5071465;28;20043;-83
2022/11/14 03:03:33;;;;;;;12.00;8.27;;;;;;;5.33;nan;100420.47;5071356;28;20036;-82
2022/11/14 03:06:03;;;;;;;14.38;9.55;;;;;;;5.35;nan;100410.72;5071623;28;20028;-83
2022/11/14 03:08:28;;;;;;;13.02;8.60;;;;;;;5.39;nan;100419.19;5071155;28;20486;-83
2022/11/14 03:10:54;;;;;;;12.18;8.32;;;;;;;5.43;nan;100412.72;5053306;28;20043;-82
2022/11/14 03:13:19;;;;;;;10.75;8.02;;;;;;;5.46;nan;100415.13;5071731;28;20061;-83
2022/11/14 03:15:45;;;;;;;9.32;7.47;;;;;;;5.58;nan;100406.28;5069449;28;20935;-83
2022/11/14 03:18:11;;;;;;;10.75;8.10;;;;;;;5.58;nan;100403.66;5069250;28;20047;-83
2022/11/14 03:20:37;;;;;;;8.82;6.72;;;;;;;5.59;nan;100402.69;5052671;28;20547;-83
2022/11/14 03:23:03;;;;;;;11.13;7.20;;;;;;;5.61;nan;100402.56;5052248;28;20040;-83
2022/11/14 03:25:28;;;;;;;12.05;8.15;;;;;;;5.59;nan;100407.94;5072323;28;20036;-83
2022/11/14 03:27:54;;;;;;;14.48;9.93;;;;;;;5.57;nan;100412.47;5055054;28;20455;-84
2022/11/14 03:30:19;;;;;;;12.18;8.77;;;;;;;5.56;nan;100402.94;5049813;28;20033;-83
2022/11/14 03:32:44;;;;;;;12.73;9.00;;;;;;;5.54;nan;100400.41;5054618;28;20045;-83
2022/11/14 03:35:10;;;;;;;12.40;8.02;;;;;;;5.56;nan;100402.09;5045402;28;20583;-83
2022/11/14 03:37:35;;;;;;;11.25;7.78;;;;;;;5.59;nan;100409.72;5049361;28;20036;-85
2022/11/14 03:40:00;;;;;;;11.18;7.90;;;;;;;5.62;nan;100404.22;5055946;28;20033;-83
2022/11/14 03:42:26;;;;;;;11.82;8.32;;;;;;;5.63;nan;100414.59;5051972;28;20546;-83
2022/11/14 03:44:51;;;;;;;10.20;7.22;;;;;;;5.63;nan;100414.59;5050710;28;20052;-86
2022/11/14 03:47:16;;;;;;;10.63;7.38;;;;;;;5.66;nan;100405.66;5054631;28;20163;-85
2022/11/14 03:49:43;;;;;;;10.07;7.05;;;;;;;5.69;nan;100408.84;5048015;28;20041;-84
2022/11/14 03:52:10;;;;;;;14.30;9.23;;;;;;;5.69;nan;100398.34;5054444;28;20120;-84
2022/11/14 03:54:35;;;;;;;12.82;8.63;;;;;;;5.71;nan;100400.88;5073495;28;20032;-84
2022/11/14 03:57:00;;;;;;;13.68;8.27;;;;;;;5.72;nan;100408.63;5072007;28;20170;-84
2022/11/14 03:59:25;;;;;;;13.82;9.07;;;;;;;5.76;nan;100411.81;5055161;28;20033;-84
2022/11/14 04:01:51;;;;;;;12.23;8.10;;;;;;;5.79;nan;100401.06;5072012;28;20082;-85
2022/11/14 04:04:16;;;;;;;13.05;8.98;;;;;;;5.82;nan;100402.63;5039873;28;20551;-85
2022/11/14 04:06:41;;;;;;;15.13;9.35;;;;;;;5.84;nan;100398.06;5061057;28;20040;-83
2022/11/14 04:09:06;;;;;;;14.55;9.10;;;;;;;5.84;nan;100393.69;5069458;28;22199;-84
2022/11/14 04:11:32;;;;;;;17.50;10.85;;;;;;;5.87;nan;100393.41;5070764;28;20043;-82
2022/11/14 04:13:57;;;;;;;15.55;11.43;;;;;;;5.87;nan;100392.59;5075136;28;20047;-83
2022/11/14 04:16:22;;;;;;;16.92;12.02;;;;;;;5.84;nan;100388.44;5067816;28;20059;-86
2022/11/14 04:18:48;;;;;;;17.80;12.25;;;;;;;5.86;nan;100386.50;5064304;28;20151;-84
2022/11/14 04:21:13;;;;;;;17.30;11.18;;;;;;;5.88;nan;100395.06;5036066;28;20075;-84
2022/11/14 04:23:38;;;;;;;15.40;11.07;;;;;;;5.89;nan;100395.94;5047289;28;20044;-84
2022/11/14 04:26:04;;;;;;;15.98;11.65;;;;;;;5.88;nan;100397.69;5058462;28;20116;-84
2022/11/14 04:28:29;;;;;;;16.67;12.43;;;;;;;5.86;nan;100390.91;5086635;28;20039;-87
2022/11/14 04:30:54;;;;;;;20.63;14.85;;;;;;;5.84;nan;100398.06;5093958;28;20418;-86
2022/11/14 04:33:19;;;;;;;18.58;13.23;;;;;;;5.80;nan;100391.44;5065010;28;20044;-83
2022/11/14 04:35:45;;;;;;;19.17;13.43;;;;;;;5.78;nan;100403.84;5049139;28;20085;-83
2022/11/14 04:38:10;;;;;;;24.05;15.85;;;;;;;5.74;nan;100404.09;5052507;28;20040;-85
2022/11/14 04:40:35;;;;;;;21.95;14.55;;;;;;;5.70;nan;100397.41;5054935;28;20021;-86
2022/11/14 04:43:01;;;;;;;20.67;13.43;;;;;;;5.67;nan;100402.06;5038316;28;20120;-85
2022/11/14 04:45:26;;;;;;;19.30;13.57;;;;;;;5.66;nan;100411.72;5057822;28;20032;-83
2022/11/14 04:47:51;;;;;;;20.05;13.70;;;;;;;5.63;nan;100404.09;5074075;28;20068;-86
2022/11/14 04:50:17;;;;;;;17.73;12.68;;;;;;;5.63;nan;100406.72;5054922;28;20120;-83
2022/11/14 04:52:42;;;;;;;17.58;12.27;;;;;;;5.60;nan;100400.88;5053245;28;20055;-83
2022/11/14 04:55:08;;;;;;;18.25;12.48;;;;;;;5.59;nan;100392.19;5052903;28;20519;-83
2022/11/14 04:57:33;;;;;;;15.52;11.05;;;;;;;5.60;nan;100388.63;5052291;28;20028;-83
2022/11/14 04:59:58;;;;;;;18.67;12.98;;;;;;;5.59;nan;100381.69;5060890;28;20056;-85
2022/11/14 05:02:23;;;;;;;17.10;12.20;;;;;;;5.57;nan;100393.28;5067239;28;20041;-85
2022/11/14 05:04:49;;;;;;;18.13;13.52;;;;;;;5.51;nan;100390.19;5067863;28;20032;-85
2022/11/14 05:07:14;;;;;;;19.10;13.52;;;;;;;5.49;nan;100391.25;5053585;28;20033;-84
2022/11/14 05:09:40;;;;;;;18.00;12.45;;;;;;;5.45;nan;100390.66;5072151;28;20056;-84
2022/11/14 05:12:05;;;;;;;18.48;12.80;;;;;;;5.43;nan;100383.88;5053722;28;20027;-84
2022/11/14 05:14:31;;;;;;;19.23;13.02;;;;;;;5.39;nan;100382.47;5071322;28;20029;-84
2022/11/14 05:16:57;;;;;;;19.05;13.52;;;;;;;5.33;nan;100384.59;5049877;28;20031;-84
2022/11/14 05:19:22;;;;;;;19.15;13.80;;;;;;;5.33;nan;100384.59;5045239;28;20721;-85
2022/11/14 05:21:48;;;;;;;19.17;13.35;;;;;;;5.29;nan;100375.34;5069990;28;20025;-85
2022/11/14 05:24:13;;;;;;;20.75;14.93;;;;;;;5.28;nan;100381.50;5051923;28;20123;-85
2022/11/14 05:26:38;;;;;;;22.70;15.02;;;;;;;5.20;nan;100368.19;5053536;28;20037;-84
2022/11/14 05:29:04;;;;;;;22.02;14.80;;;;;;;5.19;nan;100368.31;5058450;28;20041;-85
2022/11/14 05:31:29;;;;;;;24.02;16.20;;;;;;;5.17;nan;100370.19;5045847;28;20067;-86
2022/11/14 05:33:55;;;;;;;24.80;16.50;;;;;;;5.23;nan;100361.88;5054660;28;20037;-84
2022/11/14 05:36:20;;;;;;;24.40;16.25;;;;;;;5.29;nan;100356.13;5066635;28;20029;-85
2022/11/14 05:38:45;;;;;;;20.47;16.50;;;;;;;5.46;nan;100346.94;5069780;28;20407;-84
2022/11/14 05:41:13;;;;;;;21.15;16.05;;;;;;;5.45;nan;100340.00;5053355;28;20025;-85
2022/11/14 05:43:39;;;;;;;22.42;15.88;;;;;;;5.44;nan;100344.44;5061954;28;20615;-85
2022/11/14 05:46:08;;;;;;;24.02;16.77;;;;;;;5.45;nan;100351.31;5052298;28;20040;-84
2022/11/14 05:48:33;;;;;;;27.40;17.55;;;;;;;5.47;nan;100359.09;5068966;28;20158;-84
2022/11/14 05:51:00;;;;;;;27.02;17.35;;;;;;;5.51;nan;100361.34;5053093;28;20674;-84
2022/11/14 05:53:27;;;;;;;23.77;16.73;;;;;;;5.53;nan;100359.44;5054028;28;20087;-84
2022/11/14 05:55:53;;;;;;;22.02;15.50;;;;;;;5.49;nan;100346.69;5068647;28;20045;-83
2022/11/14 05:58:18;;;;;;;23.38;15.88;;;;;;;5.41;nan;100344.69;5066226;28;20067;-83
2022/11/14 06:00:44;;;;;;;20.75;14.38;;;;;;;5.36;nan;100346.81;5064823;28;20036;-84
2022/11/14 06:03:09;;;;;;;17.83;12.35;;;;;;;5.30;nan;100331.59;5061718;28;20074;-84
2022/11/14 06:05:35;;;;;;;17.67;12.10;;;;;;;5.18;nan;100341.25;5050656;28;20128;-84
2022/11/14 06:08:01;;;;;;;19.35;13.20;;;;;;;5.07;nan;100334.22;5062260;28;20029;-84
2022/11/14 06:10:26;;;;;;;16.90;11.68;;;;;;;4.98;nan;100331.50;5066562;28;20056;-84
2022/11/14 06:12:51;;;;;;;17.70;12.27;;;;;;;4.85;nan;100327.22;5050860;28;20044;-83
2022/11/14 06:15:17;;;;;;;16.75;12.02;;;;;;;4.74;nan;100321.16;5045465;28;20033;-84
2022/11/14 06:17:43;;;;;;;16.85;11.32;;;;;;;4.61;nan;100319.50;5052582;28;20040;-84
2022/11/14 06:20:09;;;;;;;14.80;9.38;;;;;;;4.51;nan;100328.19;5051799;28;20660;-83
2022/11/14 06:22:34;;;;;;;12.82;9.73;;;;;;;4.41;nan;100323.66;5035669;28;20045;-84
2022/11/14 06:25:00;;;;;;;16.65;11.65;;;;;;;4.35;nan;100323.28;5050754;28;20090;-84
2022/11/14 06:27:26;;;;;;;14.35;9.70;;;;;;;4.29;nan;100324.59;5051752;28;20040;-83
2022/11/14 06:29:51;;;;;;;18.38;12.20;;;;;;;4.22;nan;100329.44;5072030;28;20029;-83
2022/11/14 06:32:16;;;;;;;20.17;12.38;;;;;;;4.20;nan;100338.38;5065035;28;20090;-83
2022/11/14 06:34:43;;;;;;;20.40;13.55;;;;;;;4.16;nan;100331.69;5048533;28;20044;-84
2022/11/14 06:37:08;;;;;;;16.98;11.73;;;;;;;4.12;nan;100327.63;5059373;28;20033;-85
2022/11/14 06:39:33;;;;;;;20.90;14.23;;;;;;;4.09;nan;100327.88;5075679;28;20033;-85
2022/11/14 06:41:58;;;;;;;17.50;11.90;;;;;;;4.11;nan;100337.25;5052620;28;20464;-85
2022/11/14 06:44:24;;;;;;;16.13;11.15;;;;;;;4.07;nan;100327.16;5051495;28;20043;-85
2022/11/14 06:46:49;;;;;;;18.10;12.50;;;;;;;4.00;nan;100329.38;5055857;28;20509;-85
2022/11/14 06:49:14;;;;;;;17.55;12.27;;;;;;;3.93;nan;100334.25;5053512;28;20115;-84
2022/11/14 06:51:40;;;;;;;16.15;11.13;;;;;;;3.88;nan;100335.53;5051330;28;20033;-83
2022/11/14 06:54:05;;;;;;;16.65;11.27;;;;;;;3.83;nan;100343.72;5057296;28;20351;-83
2022/11/14 06:56:30;;;;;;;21.65;14.27;;;;;;;3.86;nan;100340.03;5079436;28;20052;-84
2022/11/14 06:58:56;;;;;;;23.55;16.33;;;;;;;3.99;nan;100346.03;5066015;28;20033;-85
2022/11/14 07:01:24;;;;;;;22.60;14.70;;;;;;;4.11;nan;100339.06;5067120;28;20086;-87
2022/11/14 07:03:51;;;;;;;23.63;16.63;;;;;;;4.23;nan;100346.81;5066524;28;20036;-85
2022/11/14 07:06:25;;;;;;;23.02;15.13;;;;;;;4.29;nan;100340.28;5066335;28;20047;-86
2022/11/14 07:08:51;;;;;;;22.92;15.68;;;;;;;4.31;nan;100333.13;5066978;28;20395;-85
2022/11/14 07:11:23;;;;;;;19.02;13.98;;;;;;;4.34;nan;100334.69;5079652;28;20465;-84
2022/11/14 07:13:50;;;;;;;19.00;13.05;;;;;;;4.37;nan;100343.16;5079927;28;20047;-85
2022/11/14 07:16:16;;;;;;;22.40;15.38;;;;;;;4.46;nan;100341.63;5061939;28;20037;-87
2022/11/14 07:18:41;;;;;;;21.77;14.55;;;;;;;4.51;nan;100346.53;5068489;28;20131;-87
2022/11/14 07:21:07;;;;;;;20.55;13.77;;;;;;;4.53;nan;100348.06;5063800;28;20036;-86
2022/11/14 07:23:34;;;;;;;21.45;14.07;;;;;;;4.54;nan;100341.88;5068969;28;20040;-85
2022/11/14 07:26:01;;;;;;;22.88;14.75;;;;;;;4.63;nan;100335.09;5065378;28;20489;-85
2022/11/14 07:28:27;;;;;;;19.70;13.43;;;;;;;4.78;nan;100341.75;5077128;28;20077;-86
2022/11/14 07:30:52;;;;;;;21.98;14.73;;;;;;;4.95;nan;100343.06;5074017;28;20509;-86
2022/11/14 07:33:17;;;;;;;21.65;14.48;;;;;;;5.10;nan;100341.00;5056169;28;19923;-84
2022/11/14 07:35:42;;;;;;;20.95;14.15;;;;;;;5.24;nan;100348.66;5055752;28;20531;-85
2022/11/14 07:38:08;;;;;;;22.10;14.88;;;;;;;5.36;nan;100349.44;5072847;28;20029;-84
2022/11/14 07:40:33;;;;;;;20.58;14.43;;;;;;;5.46;nan;100353.00;5055592;28;20025;-86
2022/11/14 07:43:00;;;;;;;23.90;15.82;;;;;;;5.52;nan;100349.06;5056556;28;20123;-86
2022/11/14 07:45:26;;;;;;;25.20;14.98;;;;;;;5.57;nan;100343.44;5056277;28;20402;-85
2022/11/14 07:47:56;;;;;;;20.83;13.68;;;;;;;5.66;nan;100333.03;5074490;28;20066;-85
2022/11/14 07:50:22;;;;;;;21.77;12.80;;;;;;;5.84;nan;100337.72;5055898;28;21098;-85
2022/11/14 07:52:51;;;;;;;17.30;11.35;;;;;;;5.95;nan;100333.28;5056752;28;20045;-85
2022/11/14 07:55:17;;;;;;;15.18;10.48;;;;;;;6.06;nan;100339.47;5073426;28;20029;-84
2022/11/14 07:57:43;;;;;;;15.20;10.23;;;;;;;6.08;nan;100338.38;5056111;28;20143;-84
2022/11/14 08:00:09;;;;;;;14.07;9.57;;;;;;;6.02;nan;100336.25;5055165;28;20068;-86
2022/11/14 08:02:35;;;;;;;13.13;9.13;;;;;;;5.97;nan;100327.09;5055363;28;20028;-85
2022/11/14 08:05:00;;;;;;;11.98;8.13;;;;;;;5.91;nan;100334.50;5055553;28;20047;-84
2022/11/14 08:07:25;;;;;;;11.00;8.10;;;;;;;5.86;nan;100341.88;5055320;28;20032;-84
2022/11/14 08:09:51;;;;;;;10.35;7.30;;;;;;;5.79;nan;100355.63;5055650;28;20115;-84
2022/11/14 08:12:16;;;;;;;11.82;8.23;;;;;;;5.73;nan;100349.09;5072862;28;20127;-84
2022/11/14 08:14:41;;;;;;;17.85;11.40;;;;;;;5.65;nan;100347.13;5074398;28;20071;-87
2022/11/14 08:17:06;;;;;;;15.20;10.98;;;;;;;5.66;nan;100354.00;5056414;28;20036;-85
2022/11/14 08:19:32;;;;;;;14.25;9.82;;;;;;;5.66;nan;100351.38;5057510;28;20497;-87
2022/11/14 08:21:57;;;;;;;13.90;10.20;;;;;;;5.68;nan;100359.97;5056812;28;20045;-86
2022/11/14 08:24:22;;;;;;;13.57;9.98;;;;;;;5.74;nan;100351.63;5073295;28;20098;-85
2022/11/14 08:26:47;;;;;;;16.13;11.45;;;;;;;5.81;nan;100359.81;5072034;28;20039;-84
2022/11/14 08:29:13;;;;;;;15.77;11.55;;;;;;;5.90;nan;100358.22;5073604;28;20034;-84
2022/11/14 08:31:38;;;;;;;17.73;11.98;;;;;;;6.04;nan;100351.88;5072202;28;20047;-84
2022/11/14 08:34:03;;;;;;;16.63;11.68;;;;;;;6.25;nan;100349.25;5072455;28;20045;-85
2022/11/14 08:36:29;;;;;;;16.60;10.98;;;;;;;6.48;nan;100356.00;5072681;28;20037;-86
2022/11/14 08:38:54;;;;;;;14.93;10.85;;;;;;;6.74;nan;100358.22;5056322;28;20036;-85
2022/11/14 08:41:19;;;;;;;17.92;12.85;;;;;;;6.89;nan;100356.94;5057305;28;20024;-84
2022/11/14 08:43:45;;;;;;;15.70;11.73;;;;;;;7.14;nan;100360.06;5078370;28;20493;-86
2022/11/14 08:46:10;;;;;;;14.23;10.15;;;;;;;7.28;nan;100346.53;5058740;28;20036;-85
2022/11/14 08:48:35;;;;;;;23.77;16.40;;;;;;;7.33;nan;100344.31;5076712;28;20024;-86
2022/11/14 08:51:02;;;;;;;19.40;14.00;;;;;;;7.23;nan;100339.03;5076264;28;20510;-85
2022/11/14 08:53:28;;;;;;;17.85;13.07;;;;;;;7.21;nan;100343.59;5077916;28;20060;-85
2022/11/14 08:55:53;;;;;;;17.58;12.55;;;;;;;7.23;nan;100327.69;5071481;28;20044;-85
2022/11/14 08:58:18;;;;;;;17.58;13.02;;;;;;;7.35;nan;100329.25;5070584;28;20041;-84
2022/11/14 09:00:43;;;;;;;15.25;11.20;;;;;;;7.53;nan;100325.94;5055493;28;20045;-85
2022/11/14 09:03:12;;;;;;;14.15;10.40;;;;;;;7.77;nan;100329.03;5062348;28;20543;-85
2022/11/14 09:05:38;;;;;;;16.23;12.30;;;;;;;7.73;nan;100329.44;5073947;28;20170;-86
2022/11/14 09:08:03;;;;;;;15.75;11.35;;;;;;;7.84;nan;100334.53;5056455;28;20119;-86
2022/11/14 09:10:29;;;;;;;13.27;9.93;;;;;;;8.05;nan;100342.28;5056375;28;20451;-84
2022/11/14 09:12:58;;;;;;;11.32;8.15;;;;;;;8.30;nan;100333.81;5071808;28;20071;-84
2022/11/14 09:15:24;;;;;;;10.65;7.55;;;;;;;8.50;nan;100346.97;5053720;28;20040;-85
2022/11/14 09:17:56;;;;;;;11.43;8.23;;;;;;;8.72;nan;100345.78;5050516;28;20017;-84
2022/11/14 09:20:25;;;;;;;15.65;11.10;;;;;;;8.81;nan;100339.66;5070077;28;20032;-84
2022/11/14 09:22:52;;;;;;;12.10;9.00;;;;;;;8.95;nan;100330.44;5072938;28;20041;-84
2022/11/14 09:25:18;;;;;;;13.15;9.40;;;;;;;8.98;nan;100337.22;5071269;28;20046;-86
2022/11/14 09:27:44;;;;;;;12.13;8.83;;;;;;;8.90;nan;100324.78;5054183;28;20036;-85
2022/11/14 09:30:10;;;;;;;12.90;9.55;;;;;;;8.80;nan;100331.91;5054436;28;20066;-85
2022/11/14 09:32:35;;;;;;;12.30;9.18;;;;;;;8.73;nan;100336.91;5053672;28;20033;-85
2022/11/14 09:35:01;;;;;;;14.20;9.35;;;;;;;8.68;nan;100334.72;5054212;28;20028;-85
2022/11/14 09:37:26;;;;;;;10.30;7.85;;;;;;;8.68;nan;100337.34;5053759;28;20513;-85
2022/11/14 09:39:51;;;;;;;10.65;7.60;;;;;;;8.74;nan;100332.47;5054438;28;20031;-86
2022/11/14 09:42:47;;;;;;;10.65;7.70;;;;;;;8.88;nan;100329.34;5051942;28;20029;-85
2022/11/14 09:45:16;;;;;;;10.57;8.13;;;;;;;8.87;nan;100319.78;5033679;28;20094;-85
2022/11/14 09:47:52;;;;;;;13.38;9.82;;;;;;;8.82;nan;100320.22;5057034;28;20036;-85
2022/11/14 09:50:40;;;;;;;11.68;8.85;;;;;;;8.82;nan;100324.66;5052365;28;20520;-86
2022/11/14 09:53:14;;;;;;;13.10;9.52;;;;;;;8.76;nan;100328.72;5069773;28;20036;-86
2022/11/14 09:55:39;;;;;;;11.15;8.23;;;;;;;8.72;nan;100324.69;5052932;28;20037;-86
2022/11/14 09:58:12;;;;;;;13.38;8.95;;;;;;;8.68;nan;100323.34;5071050;28;20094;-86
2022/11/14 10:01:04;;;;;;;12.25;8.80;;;;;;;8.61;nan;100317.81;5052333;28;20530;-86
2022/11/14 10:03:53;;;;;;;13.15;8.98;;;;;;;8.55;nan;100317.53;5044199;28;20059;-86
2022/11/14 10:06:44;;;;;;;12.82;9.02;;;;;;;8.46;nan;100314.81;5049499;28;20510;-85
2022/11/14 10:09:22;;;;;;;9.70;7.47;;;;;;;8.47;nan;100319.09;5058713;28;20035;-86
2022/11/14 10:12:11;;;;;;;13.90;9.32;;;;;;;8.47;nan;100318.28;5057359;28;20076;-86
2022/11/14 10:15:03;;;;;;;12.40;8.55;;;;;;;8.48;nan;100322.56;5057326;28;20040;-86
2022/11/14 10:17:49;;;;;;;13.18;8.80;;;;;;;8.46;nan;100319.22;5053143;28;20044;-85
2022/11/14 10:20:20;;;;;;;13.18;8.57;;;;;;;8.40;nan;100315.38;5070187;28;20048;-85
2022/11/14 10:23:04;;;;;;;;;;;;;;;8.39;nan;100318.09;5052388;28;20064;-85
2022/11/14 10:25:50;;;;;;;12.07;8.48;;;;;;;8.41;nan;100313.56;5032386;28;19967;-85
2022/11/14 10:28:43;;;;;;;12.30;9.00;;;;;;;8.44;nan;100311.50;5044199;28;20028;-85
2022/11/14 10:31:46;;;;;;;12.18;7.60;;;;;;;8.56;nan;100298.16;5031893;28;20029;-85
2022/11/14 10:34:25;;;;;;;12.13;8.50;;;;;;;8.69;nan;100307.34;5060495;28;20068;-86
2022/11/14 10:37:28;;;;;;;12.60;9.65;;;;;;;8.80;nan;100301.09;5031748;28;20517;-86
2022/11/14 10:40:00;;;;;;;13.35;9.93;;;;;;;8.95;nan;100301.44;5054435;28;20469;-86
2022/11/14 10:42:35;;;;;;;12.32;9.20;;;;;;;9.20;nan;100306.97;5074023;28;20456;-87
2022/11/14 10:45:06;;;;;;;12.77;8.88;;;;;;;9.33;nan;100299.53;5056150;28;20029;-85
2022/11/14 10:47:39;;;;;;;12.67;8.97;;;;;;;9.52;nan;100302.03;5056547;28;20036;-86
2022/11/14 10:50:18;;;;;;;12.20;8.35;;;;;;;9.85;nan;100299.69;5036550;28;20502;-86
2022/11/14 10:52:44;;;;;;;12.40;8.45;;;;;;;10.04;nan;100280.19;5051297;28;20043;-85
2022/11/14 10:55:16;;;;;;;10.15;7.70;;;;;;;10.07;nan;100279.88;5056966;28;20035;-86
2022/11/14 10:57:44;;;;;;;12.10;8.57;;;;;;;10.01;nan;100267.31;5074554;28;20168;-85
2022/11/14 11:00:15;;;;;;;10.40;7.70;;;;;;;10.05;nan;100271.28;5056635;28;20044;-86
2022/11/14 11:02:55;;;;;;;9.38;7.28;;;;;;;10.19;nan;100268.06;5073576;28;20056;-85
2022/11/14 11:05:23;;;;;;;10.27;7.25;;;;;;;10.61;nan;100264.69;5057812;28;20025;-86
2022/11/14 11:13:35;;;;;;;9.32;6.63;;;;;;;11.17;nan;100253.63;5076245;28;20404;-86
2022/11/14 11:16:03;;;;;;;10.48;8.23;;;;;;;11.13;nan;100247.84;5069554;28;20040;-86
2022/11/14 11:18:33;;;;;;;10.43;7.57;;;;;;;11.19;nan;100249.84;5055214;28;20028;-85
2022/11/14 11:21:04;;;;;;;10.02;7.40;;;;;;;11.22;nan;100248.66;5073197;28;20037;-85
2022/11/14 11:23:29;;;;;;;12.50;8.20;;;;;;;11.16;nan;100252.00;5055345;28;20413;-85
2022/11/14 11:26:08;;;;;;;10.38;7.45;;;;;;;11.09;nan;100253.63;5071827;28;20347;-85
2022/11/14 11:28:35;;;;;;;8.93;6.80;;;;;;;11.17;nan;100243.03;5072009;28;20035;-85
2022/11/14 11:31:09;;;;;;;8.63;6.13;;;;;;;11.32;nan;100236.13;5053752;28;20028;-85
2022/11/14 11:33:38;;;;;;;7.68;5.88;;;;;;;11.33;nan;100232.50;5050809;28;20033;-86
2022/11/14 11:36:23;;;;;;;10.60;6.90;;;;;;;11.32;nan;100232.63;5067309;28;20063;-86
2022/11/14 11:38:49;;;;;;;11.23;7.93;;;;;;;11.32;nan;100228.19;5035211;28;20067;-85
2022/11/14 11:41:31;;;;;;;10.52;7.05;;;;;;;11.36;nan;100224.22;5034184;28;20028;-86
2022/11/14 11:44:02;;;;;;;9.18;6.63;;;;;;;11.35;nan;100219.91;5054211;28;20033;-85
2022/11/14 11:46:36;;;;;;;8.02;5.40;;;;;;;11.31;nan;100221.22;5052549;28;20040;-86